Time;durP1;ratioP1;P1;durP2;ratioP2;P2;SDS_P1;SDS_P2;PMS_P1;PMS_P2;Temp;Humidity;BMP_temperature;BMP_pressure;BME280_temperature;BME280_humidity;BME280_pressure;Samples;Min_cycle;Max_cycle;Signal;HPM_P1;HPM_P2
2023/03/24 00:01:22;;;;;;;2.40;1.20;;;;;;;12.44;47.89;99760.34;5012125;28;20061;-72
2023/03/24 00:03:51;;;;;;;2.05;1.20;;;;;;;12.43;47.87;99752.28;4997332;28;20057;-72
2023/03/24 00:06:22;;;;;;;1.55;0.95;;;;;;;12.44;48.21;99754.84;4999718;28;20057;-72
2023/03/24 00:08:51;;;;;;;3.03;1.23;;;;;;;12.41;47.84;99760.69;4996155;28;20508;-71
2023/03/24 00:11:19;;;;;;;1.40;0.85;;;;;;;12.42;48.28;99761.53;5001343;28;20046;-72
2023/03/24 00:13:48;;;;;;;2.03;0.90;;;;;;;12.40;48.00;99758.97;4996025;28;20034;-72
2023/03/24 00:16:18;;;;;;;2.05;1.10;;;;;;;12.40;48.51;99752.63;4997991;28;20042;-72
2023/03/24 00:18:49;;;;;;;1.88;0.88;;;;;;;12.39;48.20;99748.16;5002700;28;20498;-72
2023/03/24 00:21:17;;;;;;;2.08;1.10;;;;;;;12.37;48.23;99733.78;5003950;28;20050;-72
2023/03/24 00:23:46;;;;;;;2.70;1.17;;;;;;;12.39;48.34;99726.19;4999726;28;20040;-73
2023/03/24 00:26:15;;;;;;;1.80;1.08;;;;;;;12.36;48.66;99721.09;5001106;28;20049;-72
2023/03/24 00:28:45;;;;;;;2.53;1.20;;;;;;;12.38;48.31;99716.25;5000919;28;20045;-72
2023/03/24 00:31:14;;;;;;;2.42;1.20;;;;;;;12.36;48.86;99707.38;5003100;28;20054;-72
2023/03/24 00:33:46;;;;;;;1.75;0.95;;;;;;;12.35;48.61;99706.50;5003192;28;20128;-72
2023/03/24 00:36:15;;;;;;;2.92;1.30;;;;;;;12.32;49.05;99700.50;5003566;28;20049;-72
2023/03/24 00:38:46;;;;;;;1.85;1.15;;;;;;;12.34;48.63;99706.69;5002424;28;20117;-72
2023/03/24 00:41:18;;;;;;;1.73;0.98;;;;;;;12.34;48.78;99702.03;4999563;28;20629;-73
2023/03/24 00:43:47;;;;;;;1.52;1.00;;;;;;;12.31;48.70;99688.66;5003546;28;20037;-73
2023/03/24 00:46:27;;;;;;;2.05;1.10;;;;;;;12.33;48.65;99688.50;4996908;28;20049;-73
2023/03/24 00:49:00;;;;;;;2.75;1.13;;;;;;;12.33;49.13;99674.78;4993745;28;20088;-73
2023/03/24 00:51:30;;;;;;;;;;;;;;;12.06;49.71;99676.88;4999206;28;20066;-73
2023/03/24 00:53:58;;;;;;;1.65;0.95;;;;;;;12.28;49.18;99685.44;4998063;28;19928;-73
2023/03/24 00:56:30;;;;;;;2.33;1.10;;;;;;;12.33;49.22;99677.53;5030228;23;20060;-79
2023/03/24 00:59:00;;;;;;;2.13;1.10;;;;;;;12.30;48.97;99672.38;5033749;28;20608;-80
2023/03/24 01:01:31;;;;;;;2.05;1.20;;;;;;;12.30;48.90;99673.22;5040598;28;20046;-79
2023/03/24 01:04:01;;;;;;;2.95;1.40;;;;;;;12.29;49.42;99651.47;5025351;28;20144;-79
2023/03/24 01:06:29;;;;;;;2.17;1.20;;;;;;;12.29;49.04;99655.09;5018767;28;20128;-79
2023/03/24 01:08:57;;;;;;;2.38;1.30;;;;;;;12.29;49.23;99665.19;5023395;28;20054;-78
2023/03/24 01:11:34;;;;;;;2.10;1.30;;;;;;;12.29;49.88;99655.09;5036130;28;20363;-79
2023/03/24 01:14:02;;;;;;;2.80;1.35;;;;;;;12.26;49.70;99654.56;5046203;28;20046;-79
2023/03/24 01:16:31;;;;;;;2.42;1.30;;;;;;;12.26;49.64;99669.13;5045148;28;20052;-78
2023/03/24 01:18:59;;;;;;;2.25;1.33;;;;;;;12.27;49.42;99672.75;5042852;28;20053;-78
2023/03/24 01:21:27;;;;;;;2.38;1.30;;;;;;;12.27;49.42;99662.63;5032301;28;20050;-79
2023/03/24 01:23:56;;;;;;;2.17;1.17;;;;;;;12.26;49.41;99660.91;5030954;28;20266;-79
2023/03/24 01:26:24;;;;;;;1.90;1.27;;;;;;;12.26;49.98;99654.56;5034519;28;20049;-79
2023/03/24 01:28:54;;;;;;;3.38;1.88;;;;;;;12.28;49.97;99656.13;5024728;28;20041;-78
2023/03/24 01:31:22;;;;;;;2.38;1.20;;;;;;;12.26;49.55;99646.34;5036723;28;20120;-79
2023/03/24 01:33:50;;;;;;;2.88;1.38;;;;;;;12.26;49.90;99641.72;5042903;28;20104;-79
2023/03/24 01:36:18;;;;;;;2.28;1.30;;;;;;;12.26;49.59;99633.47;5046711;28;20047;-80
2023/03/24 01:38:46;;;;;;;2.03;1.35;;;;;;;12.27;49.59;99620.63;5046654;28;20234;-79
2023/03/24 01:41:14;;;;;;;2.63;1.42;;;;;;;12.26;49.67;99618.91;5037650;28;20041;-79
2023/03/24 01:43:43;;;;;;;3.38;1.50;;;;;;;12.26;49.58;99608.78;5042024;28;20301;-79
2023/03/24 01:46:18;;;;;;;2.47;1.52;;;;;;;12.28;50.20;99598.50;5043282;28;20482;-79
2023/03/24 01:48:51;;;;;;;2.53;1.40;;;;;;;12.27;50.30;99593.19;5047257;28;20121;-80
2023/03/24 01:51:23;;;;;;;2.45;1.48;;;;;;;12.27;49.78;99591.31;5047872;28;20385;-80
2023/03/24 01:53:57;;;;;;;3.08;1.67;;;;;;;12.28;50.04;99584.78;5041506;28;20037;-79
2023/03/24 01:56:28;;;;;;;2.72;1.50;;;;;;;12.26;49.71;99580.50;5045629;28;20045;-79
2023/03/24 01:58:59;;;;;;;3.00;1.83;;;;;;;12.27;50.43;99572.09;5049556;28;20475;-80
2023/03/24 02:01:41;;;;;;;2.05;1.40;;;;;;;12.26;50.44;99570.38;5041602;28;20433;-79
2023/03/24 02:04:41;;;;;;;2.72;1.70;;;;;;;12.26;50.68;99559.41;5040100;28;20562;-79
2023/03/24 02:07:18;;;;;;;2.35;1.58;;;;;;;12.28;50.94;99551.88;5039407;28;20049;-79
2023/03/24 02:09:47;;;;;;;2.75;1.60;;;;;;;12.26;50.45;99539.34;5034030;28;20038;-80
2023/03/24 02:12:15;;;;;;;2.70;1.52;;;;;;;12.26;50.41;99542.94;5029046;28;20126;-80
2023/03/24 02:14:44;;;;;;;3.13;1.83;;;;;;;12.25;50.54;99533.00;5026295;28;20500;-79
2023/03/24 02:17:55;;;;;;;3.50;1.67;;;;;;;12.24;51.38;99528.56;5021536;28;20045;-80
2023/03/24 02:20:49;;;;;;;2.70;1.60;;;;;;;12.26;51.04;99521.00;5020171;28;20552;-78
2023/03/24 02:23:57;;;;;;;3.42;1.60;;;;;;;12.22;51.19;99514.16;5028335;28;20054;-78
2023/03/24 02:26:52;;;;;;;2.80;1.77;;;;;;;12.24;51.48;99516.72;5018668;28;20121;-80
2023/03/24 02:29:59;;;;;;;3.17;1.65;;;;;;;12.24;51.10;99505.75;5025874;28;20096;-79
2023/03/24 02:33:01;;;;;;;3.80;1.90;;;;;;;12.24;50.98;99517.56;4987946;28;20042;-80
2023/03/24 02:36:08;;;;;;;3.00;1.90;;;;;;;12.21;51.36;99503.38;5024728;28;20057;-79
2023/03/24 02:38:53;;;;;;;3.90;1.83;;;;;;;12.23;50.89;99501.28;5018411;28;20049;-78
2023/03/24 02:41:30;;;;;;;2.72;1.75;;;;;;;12.25;50.96;99510.22;5017465;28;20057;-78
2023/03/24 02:44:05;;;;;;;3.03;1.65;;;;;;;12.24;50.97;99512.09;5017991;28;20104;-79
2023/03/24 02:46:38;;;;;;;2.70;1.70;;;;;;;12.24;50.51;99512.09;5032165;28;20056;-79
2023/03/24 02:49:21;;;;;;;2.88;1.50;;;;;;;12.24;51.12;99495.63;5016664;28;20116;-78
2023/03/24 02:51:52;;;;;;;3.42;1.63;;;;;;;12.25;50.61;99504.72;5023110;28;20570;-78
2023/03/24 02:54:27;;;;;;;3.20;1.80;;;;;;;12.25;50.43;99516.56;5024919;28;20136;-78
2023/03/24 02:57:03;;;;;;;3.00;1.77;;;;;;;12.26;50.95;99499.06;5033499;28;20078;-78
2023/03/24 02:59:57;;;;;;;2.75;1.55;;;;;;;12.26;50.54;99492.72;5029069;28;20527;-78
2023/03/24 03:02:53;;;;;;;3.88;1.77;;;;;;;12.25;50.49;99497.34;5019232;28;20049;-78
2023/03/24 03:05:27;;;;;;;4.07;1.80;;;;;;;12.26;50.80;99493.56;5021670;28;20497;-78
2023/03/24 03:08:00;;;;;;;2.92;1.70;;;;;;;12.28;50.35;99496.16;5023630;28;20229;-77
2023/03/24 03:10:32;;;;;;;3.20;1.90;;;;;;;12.27;50.97;99491.69;5029258;28;20044;-77
2023/03/24 03:13:07;;;;;;;2.90;1.67;;;;;;;12.29;51.20;99504.19;5040335;28;20095;-77
2023/03/24 03:15:39;;;;;;;2.60;1.63;;;;;;;12.31;50.27;99501.25;5044135;28;20051;-77
2023/03/24 03:18:14;;;;;;;2.35;1.50;;;;;;;12.31;50.90;99501.25;5043711;28;20057;-78
2023/03/24 03:20:49;;;;;;;2.60;1.60;;;;;;;12.34;50.66;99495.44;5033613;28;20975;-78
2023/03/24 03:23:22;;;;;;;3.25;1.60;;;;;;;12.35;50.38;99500.75;5019429;28;20412;-78
2023/03/24 03:25:53;;;;;;;;;;;;;;;12.10;51.40;99494.50;5026014;28;20073;-78
2023/03/24 03:28:28;;;;;;;4.13;1.60;;;;;;;12.34;50.46;99489.94;5046154;28;19963;-77
2023/03/24 03:30:59;;;;;;;2.65;1.70;;;;;;;12.38;50.35;99489.38;5033713;28;20107;-77
2023/03/24 03:33:34;;;;;;;3.25;1.35;;;;;;;12.42;50.95;99484.41;5021284;28;20038;-77
2023/03/24 03:36:08;;;;;;;3.90;1.88;;;;;;;12.43;50.41;99489.72;5034468;28;20053;-77
2023/03/24 03:38:46;;;;;;;2.40;1.50;;;;;;;12.46;50.42;99485.75;5047501;28;20037;-77
2023/03/24 03:41:17;;;;;;;2.47;1.50;;;;;;;12.47;50.43;99488.31;5032158;28;20054;-77
2023/03/24 03:43:49;;;;;;;2.83;1.40;;;;;;;12.49;50.64;99489.00;5022100;28;20065;-77
2023/03/24 03:46:18;;;;;;;2.55;1.33;;;;;;;12.50;50.41;99479.72;5021040;28;20065;-76
2023/03/24 03:48:47;;;;;;;2.40;1.60;;;;;;;12.53;50.60;99480.41;5024168;28;20103;-77
2023/03/24 03:51:17;;;;;;;2.72;1.60;;;;;;;12.55;50.47;99483.81;5037528;28;20201;-77
2023/03/24 03:53:58;;;;;;;2.88;1.52;;;;;;;12.58;50.49;99489.81;5040281;28;20044;-77
2023/03/24 03:56:28;;;;;;;;;;;;;;;12.33;50.62;99486.34;5029792;28;20100;-77
2023/03/24 03:59:23;;;;;;;3.08;1.33;;;;;;;12.59;50.51;99499.75;5022315;28;20439;-77
2023/03/24 04:01:52;;;;;;;3.17;1.50;;;;;;;12.60;50.01;99501.47;5032215;28;20150;-77
2023/03/24 04:05:04;;;;;;;1.75;1.23;;;;;;;12.65;50.65;99504.53;5041499;28;20623;-77
2023/03/24 04:08:02;;;;;;;2.35;1.40;;;;;;;12.67;50.27;99498.88;5043769;28;20401;-77
2023/03/24 04:11:32;;;;;;;2.45;1.48;;;;;;;12.63;50.65;99503.84;5038894;28;20041;-77
2023/03/24 04:14:22;;;;;;;2.92;1.60;;;;;;;12.68;50.10;99504.19;5018998;28;20057;-77
2023/03/24 04:17:25;;;;;;;2.50;1.45;;;;;;;12.69;50.44;99503.16;5015409;28;20056;-76
2023/03/24 04:20:04;;;;;;;3.00;1.38;;;;;;;12.72;50.52;99513.75;5019656;28;20494;-77
2023/03/24 04:22:46;;;;;;;2.25;1.40;;;;;;;12.74;49.83;99513.59;5044710;28;20444;-76
2023/03/24 04:25:28;;;;;;;2.33;1.40;;;;;;;12.73;50.48;99529.19;5060107;28;20045;-77
2023/03/24 04:28:02;;;;;;;2.60;1.60;;;;;;;12.75;50.64;99548.25;5026431;28;20444;-77
2023/03/24 04:30:41;;;;;;;3.08;1.85;;;;;;;12.76;50.38;99544.47;5024695;28;20053;-77
2023/03/24 04:33:17;;;;;;;2.90;1.50;;;;;;;12.75;50.29;99545.50;5051987;28;20137;-77
2023/03/24 04:35:55;;;;;;;2.58;1.45;;;;;;;12.75;50.21;99559.22;5046058;28;20068;-77
2023/03/24 04:38:37;;;;;;;2.63;1.58;;;;;;;12.70;50.43;99568.00;5044776;28;20049;-78
2023/03/24 04:41:28;;;;;;;3.13;1.40;;;;;;;12.71;49.90;99577.94;5037472;28;20041;-78
2023/03/24 04:44:09;;;;;;;4.10;1.80;;;;;;;12.68;50.22;99563.72;5026357;28;20119;-78
2023/03/24 04:46:51;;;;;;;2.65;1.50;;;;;;;12.68;49.86;99588.44;5034366;28;20453;-78
2023/03/24 04:49:23;;;;;;;3.28;1.60;;;;;;;12.66;49.90;99601.47;5038735;28;20095;-78
2023/03/24 04:51:52;;;;;;;2.03;1.33;;;;;;;12.64;50.17;99590.66;5042737;28;20053;-78
2023/03/24 04:54:24;;;;;;;2.75;1.50;;;;;;;12.62;49.84;99602.88;5028804;28;20045;-78
2023/03/24 04:57:00;;;;;;;2.17;1.30;;;;;;;12.62;50.09;99609.22;5036456;28;20504;-79
2023/03/24 04:59:45;;;;;;;2.50;1.30;;;;;;;12.57;49.99;99599.75;5028887;28;20524;-79
2023/03/24 05:02:15;;;;;;;2.30;1.25;;;;;;;12.58;49.83;99605.06;5042349;28;20067;-78
2023/03/24 05:04:51;;;;;;;2.80;1.20;;;;;;;12.56;50.29;99620.00;5047049;28;20119;-78
2023/03/24 05:07:27;;;;;;;2.20;1.23;;;;;;;12.54;50.06;99619.34;5030239;28;20345;-77
2023/03/24 05:09:58;;;;;;;2.65;1.13;;;;;;;12.52;50.09;99630.50;5022606;28;20038;-78
2023/03/24 05:12:26;;;;;;;3.30;1.20;;;;;;;12.51;50.10;99637.00;5047360;28;20057;-78
2023/03/24 05:15:18;;;;;;;2.90;1.23;;;;;;;12.48;50.10;99634.59;5042105;28;20110;-78
2023/03/24 05:17:51;;;;;;;2.03;1.20;;;;;;;12.48;49.98;99662.03;5043625;28;20060;-78
2023/03/24 05:20:23;;;;;;;2.17;1.30;;;;;;;12.45;49.37;99662.41;5040847;28;20057;-78
2023/03/24 05:22:51;;;;;;;1.95;0.93;;;;;;;12.44;49.82;99663.44;5040848;28;20523;-78
2023/03/24 05:25:20;;;;;;;1.80;1.00;;;;;;;12.42;49.15;99671.00;5045821;28;20500;-78
2023/03/24 05:27:49;;;;;;;1.65;1.00;;;;;;;12.42;49.78;99673.72;5041779;28;20041;-78
2023/03/24 05:30:23;;;;;;;1.92;0.90;;;;;;;12.38;49.05;99678.69;5041017;28;20049;-77
2023/03/24 05:32:58;;;;;;;1.35;0.90;;;;;;;12.38;49.25;99689.69;5037907;28;20045;-77
2023/03/24 05:35:26;;;;;;;2.03;1.00;;;;;;;12.35;48.77;99701.03;5028729;28;20041;-78
2023/03/24 05:37:54;;;;;;;2.15;0.90;;;;;;;12.32;48.59;99708.72;5037059;28;20065;-77
2023/03/24 05:40:22;;;;;;;2.05;0.90;;;;;;;12.31;48.52;99727.06;5031741;28;20131;-78
2023/03/24 05:42:57;;;;;;;2.70;0.90;;;;;;;12.28;48.41;99727.44;5048500;28;20716;-77
2023/03/24 05:45:29;;;;;;;1.92;0.75;;;;;;;12.23;48.64;99742.69;5053996;28;20531;-77
2023/03/24 05:48:00;;;;;;;1.52;0.80;;;;;;;12.25;48.37;99746.13;5052382;28;20040;-77
2023/03/24 05:50:44;;;;;;;2.33;0.90;;;;;;;12.20;48.12;99754.03;5040481;28;20060;-78
2023/03/24 05:53:12;;;;;;;2.33;0.93;;;;;;;12.18;47.97;99753.31;5029373;28;20064;-78
2023/03/24 05:55:58;;;;;;;1.83;0.90;;;;;;;12.15;47.77;99759.13;5025750;28;20574;-77
2023/03/24 05:58:58;;;;;;;3.17;1.00;;;;;;;12.10;47.96;99767.91;5024611;28;20060;-77
2023/03/24 06:01:47;;;;;;;1.48;0.65;;;;;;;12.10;47.38;99773.38;5040510;28;20526;-77
2023/03/24 06:04:28;;;;;;;2.45;1.10;;;;;;;12.09;47.27;99788.97;5050458;28;20059;-77
2023/03/24 06:07:02;;;;;;;2.50;0.80;;;;;;;12.05;47.31;99793.06;5036567;28;20050;-78
2023/03/24 06:09:34;;;;;;;3.03;1.10;;;;;;;12.02;47.01;99792.56;5027303;28;20124;-77
2023/03/24 06:12:06;;;;;;;3.22;0.82;;;;;;;12.02;47.35;99787.09;5021443;28;20042;-77
2023/03/24 06:14:37;;;;;;;2.00;0.85;;;;;;;12.01;47.17;99796.34;5021046;28;20037;-77
2023/03/24 06:17:13;;;;;;;4.57;1.20;;;;;;;12.01;47.18;99801.81;5023930;28;20046;-77
2023/03/24 06:19:48;;;;;;;2.95;0.93;;;;;;;12.00;46.66;99805.59;5026309;28;20140;-77
2023/03/24 06:22:37;;;;;;;3.15;0.90;;;;;;;11.96;46.42;99826.16;5021930;28;20099;-76
2023/03/24 06:25:10;;;;;;;3.58;0.70;;;;;;;11.96;46.28;99812.44;5024006;28;20063;-77
2023/03/24 06:27:45;;;;;;;2.08;0.75;;;;;;;11.95;45.94;99818.97;5060621;28;20048;-77
2023/03/24 06:30:16;;;;;;;2.15;0.75;;;;;;;11.91;46.00;99823.91;5054337;28;20049;-78
2023/03/24 06:32:45;;;;;;;2.65;0.82;;;;;;;11.89;46.31;99817.72;5048107;28;20049;-79
2023/03/24 06:35:16;;;;;;;2.97;0.80;;;;;;;11.88;46.11;99824.25;5040874;28;20068;-79
2023/03/24 06:37:55;;;;;;;1.75;0.80;;;;;;;11.84;46.74;99828.34;5029572;28;20138;-78
2023/03/24 06:40:23;;;;;;;3.40;0.82;;;;;;;11.83;46.62;99829.38;5030065;28;20060;-79
2023/03/24 06:42:55;;;;;;;3.33;1.02;;;;;;;11.80;46.60;99828.88;5062612;28;20048;-77
2023/03/24 06:45:24;;;;;;;2.85;1.10;;;;;;;11.81;46.29;99836.03;5058802;28;20055;-78
2023/03/24 06:47:54;;;;;;;2.42;0.80;;;;;;;11.79;46.73;99832.63;5054304;28;20511;-77
2023/03/24 06:50:25;;;;;;;2.17;0.75;;;;;;;11.79;46.38;99830.75;5059079;28;20112;-79
2023/03/24 06:52:55;;;;;;;4.57;0.90;;;;;;;11.74;46.08;99830.38;5057270;28;20076;-78
2023/03/24 06:55:23;;;;;;;2.80;0.80;;;;;;;11.76;46.00;99841.19;5048198;28;20146;-78
2023/03/24 06:57:54;;;;;;;2.63;0.93;;;;;;;11.75;46.26;99834.84;5033031;28;20041;-79
2023/03/24 07:00:24;;;;;;;1.60;0.70;;;;;;;11.73;46.31;99839.63;5029274;28;21233;-76
2023/03/24 07:03:06;;;;;;;1.95;0.85;;;;;;;11.72;46.09;99860.69;5057777;28;20056;-77
2023/03/24 07:05:40;;;;;;;5.65;1.25;;;;;;;11.75;46.08;99867.72;5055084;28;20268;-77
2023/03/24 07:08:08;;;;;;;3.35;0.90;;;;;;;11.72;46.32;99873.53;5037513;28;20043;-76
2023/03/24 07:10:59;;;;;;;2.25;0.90;;;;;;;11.73;46.76;99862.41;5043544;28;20135;-77
2023/03/24 07:13:27;;;;;;;4.43;0.98;;;;;;;11.75;46.27;99865.00;5041922;28;20041;-77
2023/03/24 07:16:02;;;;;;;3.22;1.00;;;;;;;11.78;46.33;99861.06;5040090;28;20127;-77
2023/03/24 07:18:31;;;;;;;2.42;1.00;;;;;;;11.78;46.54;99856.44;5042883;28;20053;-76
2023/03/24 07:21:05;;;;;;;1.23;0.70;;;;;;;11.81;46.14;99860.72;5037348;28;20337;-76
2023/03/24 07:23:35;;;;;;;2.78;0.90;;;;;;;11.81;46.39;99857.97;5020496;28;20049;-77
2023/03/24 07:26:09;;;;;;;3.63;1.05;;;;;;;11.81;46.14;99853.34;5020695;28;20056;-77
2023/03/24 07:28:46;;;;;;;4.32;0.93;;;;;;;11.82;45.99;99863.28;5021654;28;20042;-77
2023/03/24 07:31:23;;;;;;;1.98;0.90;;;;;;;11.84;47.01;99865.88;5028288;28;20099;-76
2023/03/24 07:33:58;;;;;;;4.47;1.02;;;;;;;11.89;47.24;99864.34;5058666;28;20137;-76
2023/03/24 07:36:30;;;;;;;3.65;1.17;;;;;;;12.01;47.60;99862.16;5044770;28;20057;-80
2023/03/24 07:38:58;;;;;;;3.50;0.90;;;;;;;12.13;47.92;99864.38;5042172;28;20044;-77
2023/03/24 07:41:33;;;;;;;4.88;1.33;;;;;;;12.30;48.79;99857.03;5034207;28;20394;-76
2023/03/24 07:44:06;;;;;;;3.55;1.15;;;;;;;12.49;48.58;99870.44;5018750;28;20042;-76
2023/03/24 07:46:37;;;;;;;3.40;1.33;;;;;;;12.70;48.75;99874.63;5023275;28;20049;-73
2023/03/24 07:49:06;;;;;;;2.70;1.00;;;;;;;12.94;48.04;99879.22;5022510;28;20542;-75
2023/03/24 07:51:51;;;;;;;3.83;1.40;;;;;;;13.18;47.50;99881.94;5022832;28;20076;-77
2023/03/24 07:54:23;;;;;;;3.08;1.25;;;;;;;13.36;47.12;99893.56;5019588;28;20049;-74
2023/03/24 07:56:52;;;;;;;4.38;1.60;;;;;;;13.53;46.57;99902.63;5032785;28;20043;-74
2023/03/24 07:59:20;;;;;;;3.33;1.30;;;;;;;13.66;45.50;99894.69;5038228;28;20032;-76
2023/03/24 08:01:51;;;;;;;2.97;1.40;;;;;;;13.76;45.52;99913.75;5053140;22;20061;-80
2023/03/24 08:04:45;;;;;;;4.88;1.58;;;;;;;13.81;44.88;99912.16;5031067;28;20054;-80
2023/03/24 08:07:49;;;;;;;4.90;1.80;;;;;;;13.88;43.83;99918.66;5012237;28;20096;-80
2023/03/24 08:10:17;;;;;;;3.58;1.90;;;;;;;13.87;43.68;99921.59;5026966;28;20045;-79
2023/03/24 08:12:45;;;;;;;4.20;1.75;;;;;;;13.85;43.76;99919.03;5040268;28;20038;-80
2023/03/24 08:15:14;;;;;;;8.48;2.17;;;;;;;13.83;43.78;99928.50;5032917;28;20048;-80
2023/03/24 08:17:42;;;;;;;4.80;1.85;;;;;;;13.78;43.51;99920.75;5046518;28;20037;-80
2023/03/24 08:20:13;;;;;;;5.93;1.73;;;;;;;13.77;42.84;99926.47;5030911;28;20065;-80
2023/03/24 08:22:48;;;;;;;5.40;1.90;;;;;;;13.72;43.37;99928.88;5035501;28;20095;-80
2023/03/24 08:25:18;;;;;;;4.22;1.40;;;;;;;13.72;42.99;99912.38;5046693;28;20308;-80
2023/03/24 08:27:47;;;;;;;4.28;1.70;;;;;;;13.69;42.96;99902.59;5043192;28;20124;-79
2023/03/24 08:30:18;;;;;;;4.22;1.60;;;;;;;13.68;43.04;99911.88;5037643;28;20050;-79
2023/03/24 08:32:48;;;;;;;3.53;1.58;;;;;;;13.65;43.30;99920.47;5057462;28;20036;-79
2023/03/24 08:35:19;;;;;;;3.83;1.40;;;;;;;13.65;42.91;99917.72;5047679;28;20068;-80
2023/03/24 08:37:48;;;;;;;3.50;1.50;;;;;;;13.62;42.93;99923.56;5058414;28;20047;-80
2023/03/24 08:40:22;;;;;;;3.33;1.50;;;;;;;13.59;42.42;99916.56;5061524;28;20041;-80
2023/03/24 08:42:52;;;;;;;5.18;1.70;;;;;;;13.56;42.48;99911.41;5046741;28;20044;-79
2023/03/24 08:45:22;;;;;;;3.47;1.33;;;;;;;13.54;42.57;99913.41;5058560;28;20041;-80
2023/03/24 08:47:51;;;;;;;3.85;1.15;;;;;;;13.52;42.48;99926.50;5050349;28;20033;-79
2023/03/24 08:50:22;;;;;;;3.55;1.23;;;;;;;13.48;42.79;99922.38;5051147;28;20059;-79
2023/03/24 08:52:51;;;;;;;3.95;1.17;;;;;;;13.47;42.89;99926.16;5053864;28;20047;-80
2023/03/24 08:55:22;;;;;;;5.68;1.45;;;;;;;13.46;43.22;99923.59;5056036;28;20056;-80
2023/03/24 08:57:51;;;;;;;4.25;1.38;;;;;;;13.47;43.48;99925.31;5057810;28;20101;-80
2023/03/24 09:00:21;;;;;;;4.43;1.25;;;;;;;13.50;43.31;99925.81;5054334;28;20415;-78
2023/03/24 09:02:52;;;;;;;4.22;1.58;;;;;;;13.53;42.78;99932.88;5057409;28;20050;-79
2023/03/24 09:05:22;;;;;;;4.50;1.50;;;;;;;13.55;43.30;99931.63;5054984;28;20082;-80
2023/03/24 09:08:09;;;;;;;5.45;1.80;;;;;;;13.59;43.04;99941.28;5071901;28;20570;-79
2023/03/24 09:10:37;;;;;;;3.47;1.40;;;;;;;13.60;43.15;99940.25;5052052;28;20132;-79
2023/03/24 09:13:05;;;;;;;3.78;1.25;;;;;;;13.62;42.36;99934.56;5065538;28;20504;-79
2023/03/24 09:15:33;;;;;;;4.68;1.50;;;;;;;13.65;42.87;99936.13;5052142;28;20515;-79
2023/03/24 09:18:02;;;;;;;5.80;1.65;;;;;;;13.64;42.68;99938.00;5057018;28;20136;-78
2023/03/24 09:20:29;;;;;;;2.97;1.50;;;;;;;13.65;42.39;99945.22;5052925;28;20095;-79
2023/03/24 09:22:57;;;;;;;5.15;1.55;;;;;;;13.65;41.95;99936.97;5058124;28;20531;-79
2023/03/24 09:25:27;;;;;;;4.55;1.50;;;;;;;13.66;41.94;99941.44;5051056;28;20045;-78
2023/03/24 09:27:55;;;;;;;3.08;1.42;;;;;;;13.63;42.09;99945.38;5055387;28;20612;-79
2023/03/24 09:30:23;;;;;;;5.38;1.40;;;;;;;13.63;41.89;99939.03;5063056;28;20052;-79
2023/03/24 09:32:51;;;;;;;4.50;1.60;;;;;;;13.62;41.89;99935.41;5058851;28;20207;-77
2023/03/24 09:35:19;;;;;;;5.15;1.65;;;;;;;13.62;42.19;99940.91;5064400;28;20087;-79
2023/03/24 09:37:47;;;;;;;5.18;1.60;;;;;;;13.66;42.51;99943.31;5062202;28;20064;-78
2023/03/24 09:40:20;;;;;;;5.90;1.88;;;;;;;13.72;41.77;99945.38;5056911;28;20049;-79
2023/03/24 09:42:56;;;;;;;4.97;1.75;;;;;;;13.77;41.96;99938.31;5056479;28;20049;-79
2023/03/24 09:45:27;;;;;;;6.85;1.95;;;;;;;13.84;41.82;99955.81;5059555;28;20045;-79
2023/03/24 09:47:58;;;;;;;7.03;2.00;;;;;;;13.89;42.11;99960.78;5060288;28;20048;-78
2023/03/24 09:50:33;;;;;;;6.00;1.88;;;;;;;13.93;41.53;99959.41;5074485;28;20059;-78
2023/03/24 09:53:07;;;;;;;3.78;1.70;;;;;;;13.99;41.17;99961.44;5059779;28;20076;-79
2023/03/24 09:55:39;;;;;;;5.63;2.00;;;;;;;14.04;40.73;99966.38;5049803;28;20055;-78
2023/03/24 09:58:13;;;;;;;4.07;2.00;;;;;;;14.06;40.83;99976.19;5055645;28;20537;-78
2023/03/24 10:00:44;;;;;;;5.07;1.60;;;;;;;14.09;41.02;99972.22;5057090;28;20060;-79
2023/03/24 10:03:19;;;;;;;6.43;2.45;;;;;;;14.11;40.82;99986.63;5061479;28;20112;-79
2023/03/24 10:05:54;;;;;;;4.32;1.80;;;;;;;14.12;40.49;99978.22;5056585;28;20040;-79
2023/03/24 10:08:28;;;;;;;4.30;1.55;;;;;;;14.14;39.78;99986.28;5053286;28;20045;-79
2023/03/24 10:11:03;;;;;;;4.75;1.70;;;;;;;14.13;40.10;99988.19;5053524;28;20056;-80
2023/03/24 10:13:46;;;;;;;5.43;1.52;;;;;;;14.13;39.58;99988.19;5056600;28;20083;-78
2023/03/24 10:16:19;;;;;;;;;;;;;;;13.87;41.06;99998.59;5051762;28;20087;-78
2023/03/24 10:18:56;;;;;;;4.82;1.30;;;;;;;14.08;40.42;100003.53;5054100;28;19920;-79
2023/03/24 10:21:26;;;;;;;4.50;1.55;;;;;;;14.13;40.32;100012.09;5059399;28;20447;-79
2023/03/24 10:24:01;;;;;;;4.55;1.50;;;;;;;14.12;40.10;99997.47;5064490;28;20051;-79
2023/03/24 10:26:36;;;;;;;4.55;1.50;;;;;;;14.12;39.72;99994.72;5057076;28;20520;-79
2023/03/24 10:29:17;;;;;;;4.10;1.30;;;;;;;14.12;39.56;99999.38;5056643;28;20652;-77
2023/03/24 10:31:51;;;;;;;3.97;1.65;;;;;;;14.10;39.83;99991.31;5062007;28;20476;-78
2023/03/24 10:34:21;;;;;;;3.28;1.30;;;;;;;14.11;40.44;99994.88;5060638;28;20452;-79
2023/03/24 10:36:51;;;;;;;3.78;1.50;;;;;;;14.11;40.04;99993.00;5056650;28;20044;-77
2023/03/24 10:39:18;;;;;;;4.60;1.55;;;;;;;14.12;40.49;99994.72;5053985;28;20044;-78
2023/03/24 10:42:00;;;;;;;5.28;1.45;;;;;;;14.11;40.73;99998.50;5055705;28;20128;-78
2023/03/24 10:44:30;;;;;;;5.20;1.77;;;;;;;14.19;40.19;100003.16;5058550;28;20660;-78
2023/03/24 10:47:03;;;;;;;2.50;1.15;;;;;;;14.22;39.91;100011.88;5052681;28;20056;-79
2023/03/24 10:49:32;;;;;;;3.95;1.10;;;;;;;14.23;40.34;99991.59;5055297;28;20044;-79
2023/03/24 10:52:02;;;;;;;3.65;1.20;;;;;;;14.29;40.41;99992.75;5055760;28;20037;-80
2023/03/24 10:54:31;;;;;;;4.07;1.70;;;;;;;14.33;40.54;99991.38;5051909;28;20050;-79
2023/03/24 10:57:07;;;;;;;3.97;1.40;;;;;;;14.39;39.40;99991.50;5051378;28;20052;-79
2023/03/24 10:59:45;;;;;;;3.30;1.30;;;;;;;14.46;39.96;99996.28;5068277;28;20044;-79
2023/03/24 11:02:18;;;;;;;3.67;1.33;;;;;;;14.54;38.85;99986.09;5051271;28;20033;-79
2023/03/24 11:04:52;;;;;;;2.70;1.15;;;;;;;14.60;38.70;99990.06;5054942;28;20040;-79
2023/03/24 11:07:21;;;;;;;3.35;1.20;;;;;;;14.62;39.01;99986.06;5053986;28;20093;-78
2023/03/24 11:09:58;;;;;;;3.72;1.15;;;;;;;14.66;38.13;99981.91;5051614;28;20044;-79
2023/03/24 11:12:28;;;;;;;4.70;1.40;;;;;;;14.69;38.87;99983.44;5057082;28;20048;-79
2023/03/24 11:15:13;;;;;;;4.32;1.20;;;;;;;14.71;38.48;99987.72;5063956;28;20057;-79
2023/03/24 11:17:54;;;;;;;3.42;1.23;;;;;;;14.71;38.73;99992.38;5067290;28;20048;-79
2023/03/24 11:20:28;;;;;;;3.20;1.10;;;;;;;14.75;38.12;100004.75;5068913;28;20093;-79
2023/03/24 11:23:00;;;;;;;3.78;1.00;;;;;;;14.76;38.33;100000.97;5057279;28;20047;-79
2023/03/24 11:25:30;;;;;;;3.38;1.20;;;;;;;14.74;38.60;99998.38;5053522;28;20397;-79
2023/03/24 11:28:03;;;;;;;3.55;1.30;;;;;;;14.74;38.26;100009.41;5062912;28;20143;-79
2023/03/24 11:30:43;;;;;;;4.70;1.20;;;;;;;14.76;37.64;100004.56;5054032;28;20075;-79
2023/03/24 11:33:19;;;;;;;2.42;1.10;;;;;;;14.74;37.25;100016.81;5052548;28;20049;-79
2023/03/24 11:36:09;;;;;;;4.47;1.30;;;;;;;14.69;38.23;100017.34;5053335;28;20056;-79
2023/03/24 11:38:37;;;;;;;4.25;1.10;;;;;;;14.68;38.35;100012.03;5061055;28;20069;-77
2023/03/24 11:41:06;;;;;;;4.40;1.25;;;;;;;14.66;38.50;100008.59;5065399;28;20049;-78
2023/03/24 11:43:34;;;;;;;3.95;1.17;;;;;;;14.65;38.04;99999.47;5061329;28;20037;-79
2023/03/24 11:46:08;;;;;;;2.97;1.20;;;;;;;14.66;37.81;99995.69;5058134;28;20057;-79
2023/03/24 11:48:44;;;;;;;3.63;1.10;;;;;;;14.68;38.01;100001.84;5052739;28;20140;-78
2023/03/24 11:51:17;;;;;;;2.60;1.00;;;;;;;14.70;38.11;99998.91;5058382;28;20053;-78
2023/03/24 11:53:50;;;;;;;4.35;0.95;;;;;;;14.71;38.76;99996.00;5057671;28;20037;-79
2023/03/24 11:56:28;;;;;;;3.40;1.20;;;;;;;14.78;37.74;99998.88;5062763;28;20045;-78
2023/03/24 11:59:02;;;;;;;3.72;1.10;;;;;;;14.82;38.04;100002.97;5062428;28;20060;-78
2023/03/24 12:01:36;;;;;;;3.70;1.13;;;;;;;14.87;37.45;100007.94;5062634;28;20051;-78
2023/03/24 12:04:24;;;;;;;2.90;0.90;;;;;;;14.91;36.62;99992.75;5072792;28;20045;-78
2023/03/24 12:07:08;;;;;;;3.38;1.00;;;;;;;14.96;36.72;99993.06;5052862;28;20049;-78
2023/03/24 12:09:45;;;;;;;3.33;0.98;;;;;;;14.99;36.93;99988.06;5053492;28;20061;-78